Time;durP1;ratioP1;P1;durP2;ratioP2;P2;SDS_P1;SDS_P2;PMS_P1;PMS_P2;Temp;Humidity;BMP_temperature;BMP_pressure;BME280_temperature;BME280_humidity;BME280_pressure;Samples;Min_cycle;Max_cycle;Signal;HPM_P1;HPM_P2
2023/02/27 00:01:45;;;;;;;17.90;4.30;;;;;;;13.06;68.07;95865.66;6160046;23;20053;-64
2023/02/27 00:04:13;;;;;;;16.40;4.03;;;;;;;13.02;68.22;95861.53;6160005;23;20057;-64
2023/02/27 00:06:40;;;;;;;26.17;4.50;;;;;;;12.97;68.38;95859.16;6160204;23;20099;-63
2023/02/27 00:09:09;;;;;;;17.60;4.65;;;;;;;13.01;68.33;95847.53;6160225;23;20022;-64
2023/02/27 00:11:37;;;;;;;13.68;3.38;;;;;;;12.94;68.80;95867.22;6162590;23;20045;-63
2023/02/27 00:14:04;;;;;;;14.05;4.22;;;;;;;12.91;68.80;95850.81;6162387;23;20455;-63
2023/02/27 00:16:31;;;;;;;18.00;4.30;;;;;;;12.91;68.85;95851.66;6162757;23;20029;-63
2023/02/27 00:19:01;;;;;;;17.52;3.88;;;;;;;12.93;68.67;95860.28;6162427;23;20032;-63
2023/02/27 00:21:28;;;;;;;19.45;4.43;;;;;;;12.92;68.82;95858.59;6161601;23;20085;-63
2023/02/27 00:23:55;;;;;;;15.45;3.80;;;;;;;12.93;68.87;95857.66;6162550;23;20105;-64
2023/02/27 00:26:24;;;;;;;14.10;4.18;;;;;;;12.92;68.93;95866.47;6162034;23;20080;-64
2023/02/27 00:28:51;;;;;;;15.30;3.90;;;;;;;12.89;69.09;95864.84;6161790;23;20407;-63
2023/02/27 00:31:18;;;;;;;17.90;4.05;;;;;;;12.92;69.09;95866.47;6161978;23;20343;-62
2023/02/27 00:33:45;;;;;;;14.95;4.25;;;;;;;12.93;68.98;95869.94;6161641;23;20057;-63
2023/02/27 00:36:13;;;;;;;14.85;4.47;;;;;;;12.92;69.30;95874.34;6162936;23;20026;-63
2023/02/27 00:38:40;;;;;;;17.63;4.07;;;;;;;12.85;69.47;95878.25;6161719;23;20090;-63
2023/02/27 00:41:08;;;;;;;22.40;4.55;;;;;;;12.85;69.47;95889.59;6163340;23;20048;-63
2023/02/27 00:43:37;;;;;;;17.52;3.78;;;;;;;12.86;69.56;95890.44;6161505;23;20045;-63
2023/02/27 00:46:04;;;;;;;19.08;4.47;;;;;;;12.89;69.39;95891.09;6161407;23;20017;-64
2023/02/27 00:48:31;;;;;;;15.68;4.20;;;;;;;12.88;69.57;95883.31;6160946;23;20060;-63
2023/02/27 00:50:58;;;;;;;19.67;4.45;;;;;;;12.85;69.64;95865.13;6161557;23;20063;-64
2023/02/27 00:53:25;;;;;;;12.52;3.15;;;;;;;12.83;69.92;95848.63;6162266;23;20072;-63
2023/02/27 00:55:52;;;;;;;16.42;4.32;;;;;;;12.83;69.95;95862.63;6161129;23;20053;-63
2023/02/27 00:58:20;;;;;;;14.93;3.78;;;;;;;12.82;70.08;95870.56;6161059;23;20024;-63
2023/02/27 01:00:49;;;;;;;14.23;4.03;;;;;;;12.82;70.45;95863.53;6161846;23;20101;-62
2023/02/27 01:03:16;;;;;;;19.38;5.13;;;;;;;12.76;70.95;95872.59;6162037;23;20044;-64
2023/02/27 01:05:43;;;;;;;19.33;4.22;;;;;;;12.70;71.51;95867.69;6161729;23;20017;-63
2023/02/27 01:08:10;;;;;;;19.88;4.55;;;;;;;12.70;71.72;95865.06;6161274;23;20073;-63
2023/02/27 01:10:37;;;;;;;23.00;5.35;;;;;;;12.73;71.51;95864.03;6161241;23;20052;-63
2023/02/27 01:13:05;;;;;;;20.52;4.15;;;;;;;12.71;71.81;95869.41;6161135;23;20378;-64
2023/02/27 01:15:32;;;;;;;18.42;4.78;;;;;;;12.71;72.04;95874.66;6161575;23;20053;-62
2023/02/27 01:18:00;;;;;;;16.00;4.22;;;;;;;12.70;71.97;95875.56;6161126;23;20022;-63
2023/02/27 01:20:28;;;;;;;18.65;3.92;;;;;;;12.63;72.77;95882.97;6160295;23;20458;-63
2023/02/27 01:22:55;;;;;;;18.33;4.75;;;;;;;12.63;72.45;95882.09;6160889;23;20096;-63
2023/02/27 01:25:22;;;;;;;25.20;4.47;;;;;;;12.63;72.76;95882.09;6160308;23;20049;-64
2023/02/27 01:27:50;;;;;;;19.13;4.50;;;;;;;12.60;72.89;95877.88;6161331;23;20080;-63
2023/02/27 01:30:17;;;;;;;21.63;5.32;;;;;;;12.58;73.06;95884.16;6160988;23;20021;-63
2023/02/27 01:32:45;;;;;;;21.48;4.25;;;;;;;12.53;73.32;95891.44;6160745;23;20021;-63
2023/02/27 01:35:13;;;;;;;23.92;5.05;;;;;;;12.52;73.43;95887.97;6160761;23;20025;-63
2023/02/27 01:37:41;;;;;;;20.75;4.75;;;;;;;12.48;73.65;95879.44;6161640;23;20061;-62
2023/02/27 01:40:09;;;;;;;23.33;5.10;;;;;;;12.45;73.78;95866.47;6160407;23;20028;-63
2023/02/27 01:42:36;;;;;;;21.75;5.15;;;;;;;12.46;73.90;95881.28;6160075;23;20092;-62
2023/02/27 01:45:26;;;;;;;21.75;4.95;;;;;;;12.42;73.92;95884.16;6160037;23;20064;-64
2023/02/27 01:47:59;;;;;;;22.77;5.43;;;;;;;12.37;74.34;95872.16;6160231;23;20463;-63
2023/02/27 01:50:28;;;;;;;24.38;5.88;;;;;;;12.39;74.25;95874.69;6160989;23;20536;-63
2023/02/27 01:52:58;;;;;;;26.30;5.25;;;;;;;12.36;74.36;95885.34;6161636;23;20096;-63
2023/02/27 01:55:28;;;;;;;19.63;4.82;;;;;;;12.35;74.38;95900.25;6163795;23;20471;-63
2023/02/27 01:57:56;;;;;;;22.38;4.90;;;;;;;12.33;74.61;95904.72;6164840;23;20022;-63
2023/02/27 02:00:23;;;;;;;21.50;4.82;;;;;;;12.25;74.93;95904.28;6164398;23;20084;-63
2023/02/27 02:02:59;;;;;;;26.40;5.75;;;;;;;12.26;75.44;95900.75;6164842;23;20048;-63
2023/02/27 02:05:29;;;;;;;24.42;4.88;;;;;;;12.26;75.10;95898.13;6163526;23;20021;-63
2023/02/27 02:07:58;;;;;;;28.70;5.75;;;;;;;12.25;75.11;95901.66;6164056;23;20022;-63
2023/02/27 02:10:26;;;;;;;16.15;5.18;;;;;;;12.17;75.39;95901.25;6162592;23;20028;-64
2023/02/27 02:12:54;;;;;;;22.30;5.10;;;;;;;12.08;75.96;95911.34;6161257;23;20472;-63
2023/02/27 02:15:26;;;;;;;18.77;5.07;;;;;;;12.07;76.30;95901.75;6161633;23;20389;-64
2023/02/27 02:18:08;;;;;;;28.02;6.32;;;;;;;12.06;76.26;95893.94;6160757;23;20021;-64
2023/02/27 02:20:55;;;;;;;25.80;5.72;;;;;;;12.04;76.67;95912.38;6161582;23;20466;-63
2023/02/27 02:23:54;;;;;;;20.73;5.40;;;;;;;12.00;76.64;95906.47;6161418;23;20022;-63
2023/02/27 02:26:33;;;;;;;31.90;5.93;;;;;;;12.00;76.66;95902.97;6160524;23;20080;-63
2023/02/27 02:29:37;;;;;;;32.00;5.07;;;;;;;11.95;76.82;95891.91;6161398;23;20131;-63
2023/02/27 02:32:39;;;;;;;27.48;6.13;;;;;;;11.90;77.25;95909.66;6160199;23;20029;-62
2023/02/27 02:35:42;;;;;;;29.88;4.95;;;;;;;11.83;77.77;95906.53;6160041;23;20032;-63
2023/02/27 02:38:59;;;;;;;28.52;5.38;;;;;;;11.82;78.08;95916.16;6159642;23;20056;-63
2023/02/27 02:41:36;;;;;;;25.73;5.47;;;;;;;11.75;78.63;95914.78;6160953;23;20024;-62
2023/02/27 02:44:13;;;;;;;26.77;5.32;;;;;;;11.71;78.81;95905.41;6160873;23;20049;-63
2023/02/27 02:46:48;;;;;;;31.90;5.63;;;;;;;11.77;78.78;95922.56;6160529;23;20100;-63
2023/02/27 02:49:26;;;;;;;39.13;7.03;;;;;;;11.73;78.87;95927.09;6160470;23;20021;-64
2023/02/27 02:52:01;;;;;;;27.30;5.53;;;;;;;11.75;78.93;95946.22;6160614;23;20021;-63
2023/02/27 02:54:38;;;;;;;24.00;6.18;;;;;;;11.77;78.52;95927.81;6159018;23;20021;-64
2023/02/27 02:57:13;;;;;;;28.02;5.70;;;;;;;11.74;78.83;95923.59;6160178;23;20025;-63
2023/02/27 02:59:44;;;;;;;26.88;5.85;;;;;;;11.72;78.91;95912.31;6159499;23;20490;-63
2023/02/27 03:02:15;;;;;;;26.35;5.75;;;;;;;11.67;79.19;95919.56;6159069;23;20540;-63
2023/02/27 03:04:45;;;;;;;26.27;7.10;;;;;;;11.69;79.05;95909.88;6159901;23;20026;-62
2023/02/27 03:07:20;;;;;;;32.63;5.90;;;;;;;11.72;78.91;95915.81;6159683;23;20025;-63
2023/02/27 03:09:54;;;;;;;35.25;6.38;;;;;;;11.73;78.85;95900.91;6159767;23;20032;-64
2023/02/27 03:12:24;;;;;;;27.77;5.70;;;;;;;11.69;79.07;95888.91;6159577;23;20021;-63
2023/02/27 03:14:56;;;;;;;35.55;5.85;;;;;;;11.68;78.90;95877.56;6160380;23;20028;-62
2023/02/27 03:17:29;;;;;;;27.48;6.78;;;;;;;11.70;78.80;95894.06;6159087;23;20053;-63
2023/02/27 03:20:00;;;;;;;34.28;6.80;;;;;;;11.70;78.38;95911.53;6159816;23;20397;-63
2023/02/27 03:22:32;;;;;;;30.77;6.20;;;;;;;11.69;78.43;95918.56;6159597;23;20093;-64
2023/02/27 03:25:04;;;;;;;41.80;6.45;;;;;;;11.70;78.25;95924.66;6159261;23;20053;-62
2023/02/27 03:27:35;;;;;;;33.45;5.63;;;;;;;11.68;78.18;95924.72;6160059;23;20024;-63
2023/02/27 03:30:07;;;;;;;32.58;6.72;;;;;;;11.69;78.66;95936.91;6159722;23;20028;-63
2023/02/27 03:32:41;;;;;;;34.20;5.93;;;;;;;11.65;78.99;95945.84;6160496;23;20080;-63
2023/02/27 03:35:11;;;;;;;31.45;6.63;;;;;;;11.67;79.07;95966.72;6159831;23;20022;-63
2023/02/27 03:37:45;;;;;;;30.77;5.70;;;;;;;11.53;79.76;95960.41;6161465;23;20022;-63
2023/02/27 03:40:24;;;;;;;28.30;6.40;;;;;;;11.52;79.97;95950.88;6159252;23;20247;-63
2023/02/27 03:42:59;;;;;;;27.23;7.05;;;;;;;11.56;79.78;95951.56;6158700;23;20037;-63
2023/02/27 03:45:34;;;;;;;35.80;6.95;;;;;;;11.59;79.62;95943.56;6161649;23;20028;-63
2023/02/27 03:48:02;;;;;;;37.47;7.10;;;;;;;11.57;79.94;95943.63;6161465;23;20117;-63
2023/02/27 03:50:29;;;;;;;27.90;6.63;;;;;;;11.54;79.80;95933.31;6162026;23;20025;-63
2023/02/27 03:52:57;;;;;;;38.38;6.82;;;;;;;11.51;80.10;95933.47;6161495;23;20084;-63
2023/02/27 03:55:30;;;;;;;39.03;6.90;;;;;;;11.56;79.39;95944.53;6160723;23;20061;-62
2023/02/27 03:57:58;;;;;;;35.17;6.97;;;;;;;11.55;79.55;95950.72;6161063;23;20080;-64
2023/02/27 04:00:27;;;;;;;27.02;6.63;;;;;;;11.63;78.97;95966.88;6160882;23;20022;-63
2023/02/27 04:02:58;;;;;;;33.72;6.57;;;;;;;11.58;79.05;95976.75;6160996;23;20045;-63
2023/02/27 04:05:26;;;;;;;37.25;7.03;;;;;;;11.59;78.86;95975.00;6160726;23;20021;-63
2023/02/27 04:08:07;;;;;;;37.35;6.13;;;;;;;11.55;78.90;95976.06;6160759;23;20021;-62
2023/02/27 04:10:56;;;;;;;31.05;7.40;;;;;;;11.58;78.82;95983.75;6160488;23;20078;-63
2023/02/27 04:13:54;;;;;;;32.78;6.57;;;;;;;11.55;78.59;95973.44;6160346;23;20025;-62
2023/02/27 04:17:00;;;;;;;33.65;7.25;;;;;;;11.46;78.92;95978.22;6153064;23;20023;-63
2023/02/27 04:19:45;;;;;;;41.40;7.35;;;;;;;11.37;79.70;95987.41;6160246;23;20056;-63
2023/02/27 04:22:27;;;;;;;38.80;6.85;;;;;;;11.37;79.88;95974.31;6159425;23;20049;-63
2023/02/27 04:25:05;;;;;;;42.67;7.30;;;;;;;11.40;79.83;95986.38;6159589;23;20092;-63
2023/02/27 04:27:40;;;;;;;42.25;7.45;;;;;;;11.42;79.69;95988.94;6159766;23;20100;-63
2023/02/27 04:30:19;;;;;;;40.03;7.18;;;;;;;11.41;79.63;95985.47;6159772;23;20060;-62
2023/02/27 04:32:53;;;;;;;46.08;6.72;;;;;;;11.38;79.53;95978.59;6159650;23;20021;-63
2023/02/27 04:35:26;;;;;;;41.75;11.95;;;;;;;11.47;79.07;95994.81;6159576;23;20032;-62
2023/02/27 04:38:02;;;;;;;60.63;8.68;;;;;;;11.44;78.70;95998.41;6159992;23;20334;-63
2023/02/27 04:40:36;;;;;;;50.60;7.60;;;;;;;11.36;79.16;96009.28;6159945;23;20017;-63
2023/02/27 04:43:09;;;;;;;52.33;8.32;;;;;;;11.42;78.73;96002.88;6159396;23;20056;-63
2023/02/27 04:45:40;;;;;;;46.33;7.70;;;;;;;11.47;78.27;96013.13;6159325;23;20028;-63
2023/02/27 04:48:15;;;;;;;44.88;6.88;;;;;;;11.45;78.05;96018.44;6159468;23;20056;-63
2023/02/27 04:50:46;;;;;;;43.50;7.03;;;;;;;11.48;77.80;96017.44;6159521;23;20038;-63
2023/02/27 04:53:19;;;;;;;38.28;7.50;;;;;;;11.44;77.57;96031.63;6159558;23;20104;-63
2023/02/27 04:55:50;;;;;;;58.80;7.47;;;;;;;11.35;78.01;96044.22;6158654;23;20021;-63
2023/02/27 04:58:24;;;;;;;41.08;7.28;;;;;;;11.36;77.98;96050.31;6159930;23;20049;-63
2023/02/27 05:00:59;;;;;;;47.83;6.60;;;;;;;11.37;77.73;96046.75;6159406;23;20060;-63
2023/02/27 05:03:32;;;;;;;35.47;6.55;;;;;;;11.30;78.17;96043.63;6160169;23;20475;-63
2023/02/27 05:06:02;;;;;;;46.28;7.15;;;;;;;11.32;78.14;96044.38;6160390;23;20045;-63
2023/02/27 05:08:35;;;;;;;43.28;7.55;;;;;;;11.35;77.87;96056.50;6159704;23;20064;-63
2023/02/27 05:11:09;;;;;;;42.13;7.10;;;;;;;11.36;77.80;96058.16;6159366;23;20029;-61
2023/02/27 05:13:43;;;;;;;41.75;7.25;;;;;;;11.38;77.64;96061.56;6158556;23;20029;-63
2023/02/27 05:16:18;;;;;;;33.00;7.25;;;;;;;11.45;77.27;96078.69;6158771;23;20022;-63
2023/02/27 05:18:47;;;;;;;47.10;7.13;;;;;;;11.52;77.08;96081.84;6159095;23;20076;-63
2023/02/27 05:21:24;;;;;;;47.38;6.53;;;;;;;11.51;77.00;96082.75;6159282;23;20025;-63
2023/02/27 05:24:04;;;;;;;41.45;6.63;;;;;;;11.52;77.16;96083.59;6159107;23;20076;-63
2023/02/27 05:26:42;;;;;;;53.03;7.75;;;;;;;11.61;76.45;96085.75;6158679;23;20096;-63
2023/02/27 05:29:23;;;;;;;56.85;7.47;;;;;;;11.65;76.25;96094.34;6159229;23;20021;-63
2023/02/27 05:31:53;;;;;;;42.22;7.32;;;;;;;11.75;75.79;96104.25;6159148;23;20451;-63
2023/02/27 05:34:26;;;;;;;56.03;8.82;;;;;;;11.83;75.27;96109.13;6158523;23;20018;-63
2023/02/27 05:36:59;;;;;;;44.47;8.00;;;;;;;11.84;75.19;96102.97;6158836;23;20025;-63
2023/02/27 05:39:30;;;;;;;46.45;7.38;;;;;;;11.82;75.05;96117.91;6159277;23;20025;-62
2023/02/27 05:42:02;;;;;;;45.22;7.03;;;;;;;11.80;75.24;96138.09;6159773;23;20025;-63
2023/02/27 05:44:34;;;;;;;51.17;8.25;;;;;;;11.82;74.74;96166.84;6160429;23;20333;-63
2023/02/27 05:47:06;;;;;;;43.80;7.85;;;;;;;11.80;74.99;96159.06;6160263;23;20021;-63
2023/02/27 05:49:37;;;;;;;49.20;8.07;;;;;;;11.87;75.01;96173.56;6159261;23;20045;-63
2023/02/27 05:52:07;;;;;;;49.75;8.10;;;;;;;11.92;74.80;96186.44;6159083;23;20017;-63
2023/02/27 05:54:39;;;;;;;40.50;7.68;;;;;;;11.95;74.27;96199.41;6159199;23;20344;-63
2023/02/27 05:57:12;;;;;;;41.45;7.97;;;;;;;11.99;74.01;96211.44;6159481;23;20392;-63
2023/02/27 05:59:48;;;;;;;40.58;8.73;;;;;;;12.12;73.53;96221.34;6159301;23;20021;-62
2023/02/27 06:02:16;;;;;;;40.08;8.35;;;;;;;12.22;72.82;96229.63;6158868;23;20072;-63
2023/02/27 06:04:43;;;;;;;37.60;7.10;;;;;;;12.38;71.86;96233.16;6159138;23;20025;-64
2023/02/27 06:07:13;;;;;;;36.22;6.65;;;;;;;12.82;71.29;96240.63;6159064;23;20060;-64
2023/02/27 06:09:41;;;;;;;38.28;6.72;;;;;;;13.40;68.69;96260.31;6158702;23;20417;-63
2023/02/27 06:12:10;;;;;;;40.80;6.97;;;;;;;13.74;66.55;96281.31;6158132;23;20017;-64
2023/02/27 06:14:37;;;;;;;26.83;5.07;;;;;;;13.81;64.31;96283.63;6159453;23;20449;-63
2023/02/27 06:17:07;;;;;;;30.58;5.18;;;;;;;14.07;63.71;96284.78;6157855;23;20021;-63
2023/02/27 06:19:39;;;;;;;29.87;6.30;;;;;;;14.60;60.65;96299.38;6157864;23;20022;-64
2023/02/27 06:22:06;;;;;;;16.73;2.95;;;;;;;15.22;56.22;96303.66;6158507;23;20032;-64
2023/02/27 06:24:34;;;;;;;9.93;2.33;;;;;;;15.47;54.32;96301.31;6158797;23;20025;-64
2023/02/27 06:27:01;;;;;;;11.10;3.08;;;;;;;15.90;51.65;96300.41;6157540;23;20029;-63
2023/02/27 06:29:28;;;;;;;4.72;1.85;;;;;;;15.91;50.24;96281.00;6156624;23;20029;-63
2023/02/27 06:31:56;;;;;;;6.97;1.50;;;;;;;16.20;49.49;96269.56;6156450;23;20029;-62
2023/02/27 06:34:24;;;;;;;5.82;1.60;;;;;;;16.44;48.74;96263.59;6156496;23;20041;-62
2023/02/27 06:36:52;;;;;;;4.90;1.75;;;;;;;16.17;47.93;96250.31;6156450;23;20028;-62
2023/02/27 06:39:19;;;;;;;5.15;1.70;;;;;;;15.99;47.63;96254.16;6156681;23;20022;-62
2023/02/27 06:41:47;;;;;;;7.20;1.58;;;;;;;15.55;48.23;96238.41;6156869;23;20022;-63
2023/02/27 06:44:14;;;;;;;4.75;2.30;;;;;;;15.15;49.09;96244.38;6156764;23;20029;-62
2023/02/27 06:46:41;;;;;;;7.40;2.33;;;;;;;14.95;49.40;96243.81;6156609;23;20065;-62
2023/02/27 06:49:08;;;;;;;7.53;1.90;;;;;;;14.69;49.23;96235.63;6156565;23;20024;-62
2023/02/27 06:51:38;;;;;;;3.45;1.20;;;;;;;14.49;49.74;96242.09;6156210;23;20468;-62
2023/02/27 06:54:05;;;;;;;6.43;1.50;;;;;;;14.30;49.49;96235.25;6156858;23;20392;-62
2023/02/27 06:56:32;;;;;;;2.28;1.23;;;;;;;14.50;49.83;96235.88;6156608;23;20144;-62
2023/02/27 06:58:59;;;;;;;3.28;1.08;;;;;;;15.21;48.52;96237.88;6157084;23;20021;-62
2023/02/27 07:01:27;;;;;;;7.72;1.33;;;;;;;15.86;46.84;96225.91;6156290;23;20048;-62
2023/02/27 07:03:54;;;;;;;2.67;1.00;;;;;;;16.73;43.29;96224.69;6156513;23;20045;-62
2023/02/27 07:06:21;;;;;;;4.43;0.80;;;;;;;17.03;42.04;96227.97;6156484;23;20048;-62
2023/02/27 07:08:50;;;;;;;4.85;0.85;;;;;;;17.10;41.54;96223.97;6156040;23;20104;-61
2023/02/27 07:11:17;;;;;;;5.50;1.52;;;;;;;17.27;41.38;96238.66;6156362;23;20332;-63
2023/02/27 07:13:45;;;;;;;11.65;1.38;;;;;;;17.77;40.73;96245.75;6156509;23;20032;-63
2023/02/27 07:16:13;;;;;;;6.95;1.30;;;;;;;18.05;39.46;96241.09;6156441;23;20022;-62
2023/02/27 07:18:40;;;;;;;2.83;0.73;;;;;;;18.13;40.16;96234.44;6155964;23;20018;-62
2023/02/27 07:21:08;;;;;;;4.63;0.82;;;;;;;18.12;39.40;96241.50;6156235;23;20025;-63
2023/02/27 07:23:35;;;;;;;5.90;0.80;;;;;;;18.38;38.43;96238.75;6156475;23;20092;-63
2023/02/27 07:26:04;;;;;;;2.58;1.13;;;;;;;18.46;39.14;96243.47;6156262;23;20063;-62
2023/02/27 07:28:31;;;;;;;6.15;1.08;;;;;;;18.99;38.44;96249.25;6156429;23;20444;-62
2023/02/27 07:30:59;;;;;;;4.47;1.08;;;;;;;19.74;36.55;96243.53;6156569;23;20079;-63
2023/02/27 07:33:26;;;;;;;4.68;1.27;;;;;;;20.93;34.55;96245.41;6156738;23;20024;-63
2023/02/27 07:35:54;;;;;;;3.33;1.00;;;;;;;21.73;32.41;96242.09;6156541;23;20054;-63
2023/02/27 07:38:21;;;;;;;3.03;0.80;;;;;;;22.39;32.12;96244.38;6156341;23;20025;-63
2023/02/27 07:40:49;;;;;;;6.70;1.10;;;;;;;23.08;30.93;96246.97;6156546;23;20452;-63
2023/02/27 07:43:17;;;;;;;3.67;1.23;;;;;;;23.07;29.07;96253.28;6156430;23;20388;-63
2023/02/27 07:45:45;;;;;;;7.43;1.05;;;;;;;23.33;30.96;96256.16;6156370;23;20022;-62
2023/02/27 07:48:12;;;;;;;3.83;1.17;;;;;;;23.26;29.37;96251.56;6156703;23;20029;-63
2023/02/27 07:50:40;;;;;;;4.00;1.38;;;;;;;23.28;29.78;96257.59;6156128;23;20049;-63
2023/02/27 07:53:08;;;;;;;7.38;1.75;;;;;;;23.33;30.15;96258.00;6156581;23;20049;-63
2023/02/27 07:55:36;;;;;;;4.88;1.70;;;;;;;23.35;29.85;96254.19;6156308;23;20022;-64
2023/02/27 07:58:04;;;;;;;5.47;1.38;;;;;;;22.77;29.94;96258.69;6156520;23;20025;-63
2023/02/27 08:00:32;;;;;;;5.63;1.65;;;;;;;21.84;31.87;96263.34;6156375;23;20507;-63
2023/02/27 08:03:00;;;;;;;7.88;1.73;;;;;;;21.17;32.63;96271.72;6156569;23;20460;-63
2023/02/27 08:05:27;;;;;;;5.45;1.52;;;;;;;21.32;33.16;96263.38;6156362;23;20025;-63
2023/02/27 08:07:54;;;;;;;5.53;2.10;;;;;;;21.24;32.66;96279.16;6156442;23;20368;-63
2023/02/27 08:10:21;;;;;;;4.97;1.00;;;;;;;21.01;33.47;96276.66;6156203;23;20155;-63
2023/02/27 08:12:48;;;;;;;8.68;0.85;;;;;;;20.70;34.15;96280.88;6156467;23;20028;-63
2023/02/27 08:15:16;;;;;;;9.18;1.25;;;;;;;19.94;34.15;96277.25;6156506;23;20427;-62
2023/02/27 08:17:45;;;;;;;8.75;1.92;;;;;;;19.72;34.66;96279.94;6156035;23;20018;-62
2023/02/27 08:20:13;;;;;;;6.90;1.27;;;;;;;19.37;34.72;96279.09;6156448;23;20062;-63
2023/02/27 08:22:41;;;;;;;16.42;14.77;;;;;;;19.11;35.37;96288.09;6156428;23;20057;-62
2023/02/27 08:25:11;;;;;;;4.25;1.02;;;;;;;19.08;35.67;96292.81;6156141;23;20025;-62
2023/02/27 08:27:39;;;;;;;5.35;1.30;;;;;;;18.96;35.64;96295.38;6156899;23;20022;-63
2023/02/27 08:30:09;;;;;;;5.40;0.90;;;;;;;18.55;35.93;96297.56;6156997;23;20026;-63
2023/02/27 08:32:37;;;;;;;7.90;1.40;;;;;;;18.29;36.91;96302.97;6158730;23;20456;-63
2023/02/27 08:35:07;;;;;;;8.13;1.35;;;;;;;18.39;36.39;96303.97;6158223;23;20100;-63
2023/02/27 08:37:34;;;;;;;12.52;1.70;;;;;;;18.32;37.29;96308.03;6157879;23;20028;-62
2023/02/27 08:40:01;;;;;;;3.88;0.85;;;;;;;18.31;36.77;96315.13;6157997;23;20021;-62
2023/02/27 08:42:28;;;;;;;4.97;1.05;;;;;;;18.24;37.27;96323.63;6158225;23;20021;-62
2023/02/27 08:44:56;;;;;;;6.25;1.08;;;;;;;18.11;37.24;96326.31;6158667;23;20491;-62
2023/02/27 08:47:23;;;;;;;5.90;1.10;;;;;;;18.12;37.83;96330.66;6158048;23;20036;-62
2023/02/27 08:49:51;;;;;;;6.32;1.70;;;;;;;18.01;37.30;96334.03;6157820;23;20029;-63
2023/02/27 08:52:20;;;;;;;5.28;1.35;;;;;;;18.09;37.93;96347.56;6158422;23;20021;-62
2023/02/27 08:54:47;;;;;;;7.07;1.13;;;;;;;18.25;37.90;96342.06;6158246;23;20049;-63
2023/02/27 08:57:14;;;;;;;4.07;1.00;;;;;;;18.49;37.38;96350.97;6158095;23;20105;-62
2023/02/27 08:59:41;;;;;;;10.40;1.20;;;;;;;18.52;37.71;96350.75;6159060;23;20018;-63
2023/02/27 09:02:10;;;;;;;7.28;1.40;;;;;;;18.59;37.01;96354.63;6157703;23;20049;-63
2023/02/27 09:04:37;;;;;;;7.75;1.42;;;;;;;18.35;37.37;96362.53;6158466;23;20017;-63
2023/02/27 09:07:04;;;;;;;7.18;1.10;;;;;;;18.52;37.33;96370.13;6158025;23;20020;-62
2023/02/27 09:09:33;;;;;;;6.32;1.50;;;;;;;18.68;37.58;96371.63;6158142;23;20018;-62
2023/02/27 09:12:00;;;;;;;9.80;1.23;;;;;;;18.81;36.31;96374.22;6158447;23;20487;-60
2023/02/27 09:14:27;;;;;;;6.75;0.90;;;;;;;18.85;36.88;96377.50;6158299;23;20017;-62
2023/02/27 09:16:54;;;;;;;9.52;1.73;;;;;;;18.95;35.97;96386.44;6158131;23;20076;-63
2023/02/27 09:19:22;;;;;;;11.07;1.75;;;;;;;18.81;36.31;96380.38;6158245;23;20077;-63
2023/02/27 09:21:49;;;;;;;18.58;1.88;;;;;;;18.68;37.18;96385.75;6157517;23;20056;-63
2023/02/27 09:24:16;;;;;;;10.48;2.33;;;;;;;18.62;37.98;96380.88;6157359;23;20025;-62
2023/02/27 09:26:44;;;;;;;10.52;2.17;;;;;;;18.62;37.59;96388.81;6157772;23;20022;-63
2023/02/27 09:29:11;;;;;;;11.70;1.67;;;;;;;18.41;38.62;96392.09;6157793;23;20021;-62
2023/02/27 09:31:39;;;;;;;11.57;1.95;;;;;;;18.47;38.54;96384.63;6157640;23;20092;-62
2023/02/27 09:34:06;;;;;;;12.82;1.98;;;;;;;18.67;38.11;96388.50;6158322;23;20022;-62
2023/02/27 09:36:34;;;;;;;15.27;2.53;;;;;;;18.38;38.91;96392.31;6158292;23;20018;-63
2023/02/27 09:39:01;;;;;;;14.65;2.15;;;;;;;18.30;38.29;96399.94;6158137;23;20452;-63
2023/02/27 09:41:46;;;;;;;8.85;1.95;;;;;;;18.22;39.50;96392.56;6157384;23;20384;-62
2023/02/27 09:44:25;;;;;;;15.55;2.28;;;;;;;18.12;39.02;96395.00;6158457;23;20097;-63
2023/02/27 09:46:54;;;;;;;7.57;1.70;;;;;;;18.16;40.09;96393.00;6157158;23;20448;-63
2023/02/27 09:49:26;;;;;;;14.80;2.05;;;;;;;18.13;40.49;96398.50;6158260;23;20105;-62
2023/02/27 09:51:54;;;;;;;10.77;2.13;;;;;;;18.14;40.14;96393.09;6157620;23;20047;-62
2023/02/27 09:54:21;;;;;;;19.10;3.72;;;;;;;18.09;40.71;96389.91;6157492;23;20025;-62
2023/02/27 09:56:52;;;;;;;17.75;3.28;;;;;;;18.17;40.75;96392.03;6157764;23;20021;-61
2023/02/27 09:59:37;;;;;;;25.67;3.30;;;;;;;18.10;40.18;96386.34;6157112;23;20018;-63
2023/02/27 10:02:17;;;;;;;16.77;3.05;;;;;;;18.11;41.39;96385.38;6157052;23;20017;-63
2023/02/27 10:04:52;;;;;;;14.27;2.80;;;;;;;18.09;40.74;96379.31;6157683;23;20024;-62
2023/02/27 10:07:26;;;;;;;28.33;3.88;;;;;;;18.10;42.00;96385.47;6156674;23;20017;-62
2023/02/27 10:10:04;;;;;;;30.55;4.88;;;;;;;18.25;41.73;96388.84;6156636;23;20025;-63
2023/02/27 10:12:56;;;;;;;36.95;4.95;;;;;;;18.24;41.55;96371.28;6157322;23;20033;-63
2023/02/27 10:15:29;;;;;;;33.28;4.47;;;;;;;18.21;42.57;96382.09;6116886;23;20071;-63
2023/02/27 10:18:01;;;;;;;24.83;4.32;;;;;;;18.26;42.36;96385.25;6157058;23;20344;-63
2023/02/27 10:20:31;;;;;;;32.20;4.35;;;;;;;18.18;43.07;96383.13;6157046;23;20044;-62
2023/02/27 10:23:01;;;;;;;24.40;4.40;;;;;;;18.29;43.23;96385.88;6156567;23;20053;-63
2023/02/27 10:25:29;;;;;;;34.25;4.88;;;;;;;18.36;42.03;96391.56;6156850;23;20018;-63
2023/02/27 10:28:02;;;;;;;24.52;4.43;;;;;;;18.24;41.99;96395.09;6156614;23;20389;-63
2023/02/27 10:30:31;;;;;;;32.42;4.85;;;;;;;18.11;43.04;96387.19;6156277;23;20028;-62
2023/02/27 10:33:08;;;;;;;31.38;4.25;;;;;;;18.21;44.24;96376.78;6156799;23;20035;-62
2023/02/27 10:35:37;;;;;;;32.75;4.72;;;;;;;18.24;43.46;96376.59;6156542;23;20021;-64
2023/02/27 10:38:06;;;;;;;32.15;4.75;;;;;;;18.42;43.57;96369.09;6156635;23;20459;-63
2023/02/27 10:40:36;;;;;;;34.35;5.68;;;;;;;18.64;42.88;96371.03;6156737;23;20101;-63
2023/02/27 10:43:06;;;;;;;50.30;6.43;;;;;;;18.91;42.92;96375.22;6156372;23;20025;-62
2023/02/27 10:45:34;;;;;;;28.35;4.20;;;;;;;19.05;42.38;96376.00;6156906;23;20028;-63
2023/02/27 10:48:02;;;;;;;27.55;4.78;;;;;;;19.09;40.63;96380.16;6156319;23;20028;-63
2023/02/27 10:50:31;;;;;;;51.20;7.28;;;;;;;19.06;41.66;96381.16;6156417;23;20460;-63
2023/02/27 10:53:01;;;;;;;38.20;5.38;;;;;;;19.02;41.79;96371.78;6156152;23;20096;-63
2023/02/27 10:55:30;;;;;;;27.63;5.18;;;;;;;19.17;41.36;96375.09;6156281;23;20021;-63
2023/02/27 10:57:59;;;;;;;29.92;5.25;;;;;;;19.30;41.21;96371.53;6156384;23;20068;-62
2023/02/27 11:00:32;;;;;;;32.00;4.82;;;;;;;19.38;40.67;96371.78;6156368;23;20017;-63
2023/02/27 11:03:01;;;;;;;33.58;5.18;;;;;;;19.45;40.92;96372.16;6156304;23;20029;-63
2023/02/27 11:05:32;;;;;;;33.15;5.32;;;;;;;19.41;41.30;96374.19;6156113;23;20080;-63
2023/02/27 11:08:13;;;;;;;33.78;4.88;;;;;;;19.35;41.54;96363.22;6156469;23;20056;-63
2023/02/27 11:10:55;;;;;;;39.28;4.88;;;;;;;19.17;42.23;96368.94;6156442;23;20028;-63
2023/02/27 11:13:24;;;;;;;33.05;5.20;;;;;;;19.20;41.46;96366.06;6156697;23;20021;-63
2023/02/27 11:16:08;;;;;;;51.58;5.35;;;;;;;19.22;41.87;96368.59;6156757;23;20100;-63
2023/02/27 11:18:39;;;;;;;29.05;4.97;;;;;;;19.06;42.52;96375.03;6156710;23;20017;-63
2023/02/27 11:21:22;;;;;;;31.80;5.35;;;;;;;19.28;41.63;96368.13;6157273;23;20025;-63
2023/02/27 11:23:56;;;;;;;35.75;5.45;;;;;;;19.23;41.30;96363.19;6156215;23;20018;-63
2023/02/27 11:26:31;;;;;;;29.38;12.68;;;;;;;19.09;41.62;96363.41;6156067;23;20025;-63
2023/02/27 11:29:14;;;;;;;38.65;5.75;;;;;;;19.09;43.02;96355.44;6155957;23;20021;-63
2023/02/27 11:31:51;;;;;;;27.00;4.78;;;;;;;19.18;42.00;96352.09;6156078;23;20096;-63
2023/02/27 11:34:24;;;;;;;47.63;5.43;;;;;;;19.14;40.70;96350.66;6156351;23;20018;-63
2023/02/27 11:36:55;;;;;;;37.75;5.57;;;;;;;19.35;40.01;96356.09;6156318;23;20021;-63
2023/02/27 11:39:28;;;;;;;40.05;6.47;;;;;;;19.46;40.08;96344.66;6157067;23;20028;-63
2023/02/27 11:41:58;;;;;;;55.75;5.53;;;;;;;19.36;41.06;96352.50;6156185;23;20022;-63
2023/02/27 11:44:29;;;;;;;33.03;5.03;;;;;;;19.25;41.43;96349.81;6156346;23;20017;-63
2023/02/27 11:47:16;;;;;;;30.15;4.78;;;;;;;19.31;40.55;96350.19;6156229;23;20492;-64